Longmont, Colorado
Current Conditions -  °F | °C
As of 2:55 PM on Friday 28 Nov 2014 (Local Time) from KLMO Reporting Station
Clear Clear  
Wind Chill: 65°   Ceiling: Unl
Heat Index: 65°   Visibility: 10mi
Dew Point: 14°   Wind: 12mph
Humidity: 14%   Direction: 90°E
Pressure: 29.8"   Gusts: NA
Location:  40.16°N, 105.1°W
Report Text: KLMO 282155Z AUTO 09010KT 10SM CLR 18/M10 A2980 RMK AO2 T01821099
Loading
Personal Weather Stations






























Interactive Weather Map New forecast layout! Learn more

10-Day Weather Forecast

Advertisements
Track Severe Weather on mobile